^^
WestSenecaWeather Station Historical Data
 
Daily Summary for February 18, 2018 Units:  English    Metric   Both
Daily Weekly Monthly Yearly Custom
  Current: High: Low: Average:
Temperature: 27.7 °F 29.4 °F 27.2 °F 28 °F
Dew Point: 25.7 °F 26.5 °F 24.9 °F 25.6 °F
Humidity: 92% 92% 88% 90%
Wind Speed: 7.0mph 13.0mph 0.0mph 5.7mph
Wind Gust: 7.0mph 13.0mph - -
WindNNE - - SE
Pressure: 30.09 in 30.09 in 29.99 in -
Precipitation: 0.00 in      
Historical Graphs
 
 
Tabular Data for February 18, 2018
Time Temperature Dew Point Pressure Wind Wind Speed Wind Gust Humidity Rainfall Rate (Hourly) solar
00:02 27.8 °F 25.5 °F 29.99 in ENE 2.3 mph 2.3 mph 91% 0.00 in 0.0 W/m2
00:07 27.8 °F 25.5 °F 29.99 in ENE 2.3 mph 2.3 mph 91% 0.00 in 0.0 W/m2
00:12 27.7 °F 25.4 °F 29.99 in ENE 3.5 mph 3.5 mph 91% 0.00 in 0.0 W/m2
00:17 27.7 °F 25.4 °F 29.99 in ENE 2.3 mph 2.3 mph 91% 0.00 in 0.0 W/m2
00:22 27.6 °F 25.3 °F 29.99 in Calm     91% 0.00 in 0.0 W/m2
00:27 27.6 °F 25.3 °F 30.00 in Calm     91% 0.00 in 0.0 W/m2
00:32 27.5 °F 25.2 °F 30.00 in Calm     91% 0.00 in 0.0 W/m2
00:37 27.5 °F 25.2 °F 30.00 in Calm     91% 0.00 in 0.0 W/m2
00:42 27.5 °F 25.2 °F 30.00 in Calm     91% 0.00 in 0.0 W/m2
00:47 27.5 °F 25.2 °F 30.00 in Calm     91% 0.00 in 0.0 W/m2
00:52 27.5 °F 25.2 °F 30.00 in ENE 2.3 mph 2.3 mph 91% 0.00 in 0.0 W/m2
00:57 27.4 °F 25.1 °F 30.01 in ENE 2.3 mph 2.3 mph 91% 0.00 in 0.0 W/m2
01:02 27.3 °F 25.0 °F 30.01 in Calm     91% 0.00 in 0.0 W/m2
01:07 27.2 °F 24.9 °F 30.01 in ENE 1.2 mph 1.2 mph 91% 0.00 in 0.0 W/m2
01:12 27.4 °F 25.1 °F 30.02 in ENE 2.3 mph 2.3 mph 91% 0.00 in 0.0 W/m2
01:17 27.5 °F 25.2 °F 30.02 in ENE 3.5 mph 3.5 mph 91% 0.00 in 0.0 W/m2
01:22 27.9 °F 25.9 °F 30.02 in NE 8.1 mph 8.1 mph 92% 0.00 in 0.0 W/m2
01:27 28.3 °F 26.0 °F 30.02 in North 3.5 mph 3.5 mph 91% 0.00 in 0.0 W/m2
01:32 28.8 °F 26.2 °F 30.03 in ENE 7.0 mph 7.0 mph 90% 0.00 in 0.0 W/m2
01:37 29.1 °F 26.5 °F 30.03 in NE 12.7 mph 12.7 mph 90% 0.00 in 0.0 W/m2
01:42 29.3 °F 26.5 °F 30.03 in ENE 9.2 mph 9.2 mph 89% 0.00 in 0.0 W/m2
01:47 29.4 °F 26.3 °F 30.03 in ENE 12.7 mph 12.7 mph 88% 0.00 in 0.0 W/m2
01:52 29.4 °F 26.3 °F 30.04 in NNW 8.1 mph 8.1 mph 88% 0.00 in 0.0 W/m2
01:57 29.3 °F 26.2 °F 30.04 in NE 9.2 mph 9.2 mph 88% 0.00 in 0.0 W/m2
02:02 29.3 °F 26.2 °F 30.05 in North 8.1 mph 8.1 mph 88% 0.00 in 0.0 W/m2
02:07 29.1 °F 26.0 °F 30.05 in NNW 13.0 mph 13.0 mph 88% 0.00 in 0.0 W/m2
02:12 28.9 °F 25.8 °F 30.05 in NE 5.0 mph 5.0 mph 88% 0.00 in 0.0 W/m2
02:17 28.6 °F 25.8 °F 30.06 in ENE 8.1 mph 8.1 mph 89% 0.00 in 0.0 W/m2
02:22 28.4 °F 25.6 °F 30.06 in NE 8.1 mph 8.1 mph 89% 0.00 in 0.0 W/m2
02:27 28.1 °F 25.3 °F 30.07 in NW 6.9 mph 6.9 mph 89% 0.00 in 0.0 W/m2
02:32 28.0 °F 25.4 °F 30.07 in NNE 6.9 mph 6.9 mph 90% 0.00 in 0.0 W/m2
02:37 27.9 °F 25.3 °F 30.07 in NE 11.5 mph 11.5 mph 90% 0.00 in 0.0 W/m2
02:42 27.9 °F 25.3 °F 30.07 in NNW 11.5 mph 11.5 mph 90% 0.00 in 0.0 W/m2
02:47 27.9 °F 25.6 °F 30.07 in North 11.5 mph 11.5 mph 91% 0.00 in 0.0 W/m2
02:52 27.9 °F 25.6 °F 30.07 in North 8.1 mph 8.1 mph 91% 0.00 in 0.0 W/m2
02:57 27.8 °F 25.5 °F 30.08 in North 5.8 mph 5.8 mph 91% 0.00 in 0.0 W/m2
03:02 27.8 °F 25.5 °F 30.08 in North 9.2 mph 9.2 mph 91% 0.00 in 0.0 W/m2
03:07 27.6 °F 25.3 °F 30.08 in NNE 12.7 mph 12.7 mph 91% 0.00 in 0.0 W/m2
03:12 27.6 °F 25.3 °F 30.08 in North 3.5 mph 3.5 mph 91% 0.00 in 0.0 W/m2
03:17 27.5 °F 25.2 °F 30.08 in North 5.8 mph 5.8 mph 91% 0.00 in 0.0 W/m2
03:22 27.6 °F 25.6 °F 30.09 in NE 5.8 mph 5.8 mph 92% 0.00 in 0.0 W/m2
03:27 27.7 °F 25.7 °F 30.09 in NNE 7.0 mph 7.0 mph 92% 0.00 in 0.0 W/m2
west seneca weather
Compliments of Weather Underground - 4 mb